Time;durP1;ratioP1;P1;durP2;ratioP2;P2;SDS_P1;SDS_P2;PMS_P1;PMS_P2;Temp;Humidity;BMP_temperature;BMP_pressure;BME280_temperature;BME280_humidity;BME280_pressure;Samples;Min_cycle;Max_cycle;Signal;HPM_P1;HPM_P2
2023/12/01 00:00:24;;;;;;;21.98;9.55;;;;;;;-0.74;99.63;100699.28;7392859;19;19951;-72
2023/12/01 00:02:53;;;;;;;20.30;8.55;;;;;;;-0.77;98.97;100702.97;7394674;19;19926;-72
2023/12/01 00:05:21;;;;;;;26.70;10.40;;;;;;;-0.77;99.54;100697.69;7396992;19;19925;-72
2023/12/01 00:07:50;;;;;;;22.90;9.80;;;;;;;-0.76;99.60;100701.19;7395711;19;19957;-72
2023/12/01 00:10:21;;;;;;;26.63;10.13;;;;;;;-0.76;99.26;100703.81;7394750;19;19960;-72
2023/12/01 00:12:49;;;;;;;28.17;11.45;;;;;;;-0.81;99.19;100705.94;7394136;19;19922;-71
2023/12/01 00:15:18;;;;;;;24.85;10.23;;;;;;;-0.86;99.32;100708.91;7395358;19;20294;-72
2023/12/01 00:17:47;;;;;;;26.23;11.48;;;;;;;-0.87;99.21;100714.31;7393901;19;19962;-72
2023/12/01 00:20:15;;;;;;;27.35;10.40;;;;;;;-0.91;98.88;100714.53;7395097;19;19922;-72
2023/12/01 00:22:44;;;;;;;30.17;11.98;;;;;;;-0.94;98.65;100716.53;7393646;19;19958;-73
2023/12/01 00:25:13;;;;;;;27.77;11.00;;;;;;;-0.98;98.90;100709.78;7391416;19;19978;-72
2023/12/01 00:27:44;;;;;;;28.60;10.88;;;;;;;-0.97;99.51;100716.75;7393724;19;19918;-72
2023/12/01 00:30:13;;;;;;;29.85;11.00;;;;;;;-0.96;99.68;100708.75;7395121;19;20672;-72
2023/12/01 00:32:42;;;;;;;32.20;12.00;;;;;;;-0.94;99.77;100712.09;7393449;19;19986;-72
2023/12/01 00:35:11;;;;;;;27.25;11.10;;;;;;;-0.94;99.42;100712.09;7394618;19;19998;-72
2023/12/01 00:37:40;;;;;;;29.30;10.68;;;;;;;-0.93;99.84;100713.81;7394911;19;20435;-72
2023/12/01 00:40:10;;;;;;;30.63;11.25;;;;;;;-0.92;99.38;100718.13;7391691;19;20349;-72
2023/12/01 00:42:40;;;;;;;34.22;12.98;;;;;;;-0.91;99.53;100713.69;7393162;19;19933;-72
2023/12/01 00:45:15;;;;;;;32.78;12.25;;;;;;;-0.89;99.84;100718.88;7392828;19;19922;-72
2023/12/01 00:47:44;;;;;;;27.70;11.25;;;;;;;-0.89;99.83;100716.22;7394732;19;19950;-72
2023/12/01 00:50:12;;;;;;;31.35;11.80;;;;;;;-0.86;100.00;100718.66;7394310;19;19959;-72
2023/12/01 00:52:41;;;;;;;34.15;11.70;;;;;;;-0.86;99.83;100718.66;7392760;19;19955;-72
2023/12/01 00:55:10;;;;;;;33.50;12.23;;;;;;;-0.84;100.00;100724.69;7392863;19;20356;-72
2023/12/01 00:57:39;;;;;;;29.15;11.70;;;;;;;-0.85;99.49;100729.13;7393140;19;19994;-72
2023/12/01 01:00:09;;;;;;;31.63;11.75;;;;;;;-0.86;99.38;100737.19;7394355;19;19922;-72
2023/12/01 01:02:40;;;;;;;31.35;11.88;;;;;;;-0.88;98.90;100739.06;7394548;19;19930;-72
2023/12/01 01:05:10;;;;;;;28.92;11.07;;;;;;;-0.94;98.76;100735.91;7393827;19;19922;-72
2023/12/01 01:07:38;;;;;;;26.73;10.40;;;;;;;-0.94;98.89;100745.63;7392739;19;19926;-72
2023/12/01 01:10:08;;;;;;;28.85;11.10;;;;;;;-0.95;98.60;100743.97;7391686;19;19990;-71
2023/12/01 01:12:43;;;;;;;24.35;9.68;;;;;;;-0.98;98.67;100733.56;7392472;19;19926;-72
2023/12/01 01:15:32;;;;;;;25.58;10.30;;;;;;;-0.99;98.68;100738.00;7390295;19;19926;-71
2023/12/01 01:18:03;;;;;;;20.65;8.98;;;;;;;-1.00;98.39;100743.41;7392940;19;19926;-72
2023/12/01 01:20:32;;;;;;;27.25;9.80;;;;;;;-1.05;97.97;100737.59;7390456;19;19951;-72
2023/12/01 01:23:01;;;;;;;23.08;9.02;;;;;;;-1.10;98.04;100730.00;7393431;19;19926;-72
2023/12/01 01:25:30;;;;;;;20.65;9.05;;;;;;;-1.13;98.19;100730.22;7392789;19;19922;-72
2023/12/01 01:27:58;;;;;;;24.08;8.98;;;;;;;-1.13;98.24;100734.66;7392426;19;20352;-72
2023/12/01 01:30:27;;;;;;;24.65;8.85;;;;;;;-1.20;97.58;100728.06;7393449;19;19928;-71
2023/12/01 01:32:56;;;;;;;22.70;8.63;;;;;;;-1.20;98.17;100741.28;7390244;19;19918;-72
2023/12/01 01:35:27;;;;;;;18.45;8.55;;;;;;;-1.21;98.32;100747.56;7388217;19;19996;-72
2023/12/01 01:37:56;;;;;;;21.23;8.07;;;;;;;-1.20;98.53;100755.34;7392804;19;19926;-72
2023/12/01 01:40:25;;;;;;;20.85;8.93;;;;;;;-1.19;98.48;100749.13;7392949;19;19982;-71
2023/12/01 01:42:54;;;;;;;22.13;8.45;;;;;;;-1.23;97.80;100755.56;7392466;19;19929;-71
2023/12/01 01:45:23;;;;;;;18.70;7.60;;;;;;;-1.32;97.08;100755.34;7389369;19;19923;-71
2023/12/01 01:47:52;;;;;;;22.88;8.30;;;;;;;-1.34;98.26;100752.81;7392859;19;19923;-71
2023/12/01 01:50:22;;;;;;;18.80;7.10;;;;;;;-1.34;98.29;100755.47;7392614;19;19955;-71
2023/12/01 01:52:56;;;;;;;21.15;7.30;;;;;;;-1.33;98.64;100759.78;7390747;19;19988;-71
2023/12/01 01:55:26;;;;;;;18.27;7.50;;;;;;;-1.31;98.64;100764.97;7394362;19;19951;-71
2023/12/01 01:57:54;;;;;;;15.45;6.88;;;;;;;-1.32;98.25;100761.47;7393191;19;19962;-71
2023/12/01 02:00:23;;;;;;;20.50;8.35;;;;;;;-1.33;98.14;100770.34;7391361;19;19918;-70
2023/12/01 02:02:51;;;;;;;17.48;6.75;;;;;;;-1.35;98.35;100766.97;7391178;19;19933;-71
2023/12/01 02:05:21;;;;;;;17.40;7.50;;;;;;;-1.37;98.41;100768.88;7396849;19;19918;-71
2023/12/01 02:07:49;;;;;;;17.15;6.93;;;;;;;-1.38;98.12;100781.22;7396465;19;19922;-71
2023/12/01 02:10:40;;;;;;;14.63;6.95;;;;;;;-1.39;98.18;100769.00;7395190;19;19937;-70
2023/12/01 02:13:10;;;;;;;15.95;6.85;;;;;;;-1.38;97.96;100769.81;7397836;19;19935;-71
2023/12/01 02:15:38;;;;;;;16.60;6.45;;;;;;;-1.33;98.02;100780.91;7394036;19;19926;-71
2023/12/01 02:18:07;;;;;;;13.20;6.20;;;;;;;-1.33;97.46;100775.63;7397845;19;19934;-72
2023/12/01 02:20:36;;;;;;;12.15;5.32;;;;;;;-1.35;97.09;100774.91;7395735;19;19923;-72
2023/12/01 02:23:07;;;;;;;14.40;6.90;;;;;;;-1.39;97.30;100782.19;7396573;19;19967;-72
2023/12/01 02:25:36;;;;;;;13.27;6.38;;;;;;;-1.36;98.10;100781.13;7397309;19;19941;-72
2023/12/01 02:28:05;;;;;;;14.23;6.65;;;;;;;-1.38;97.52;100783.88;7396694;19;19947;-72
2023/12/01 02:30:34;;;;;;;13.63;5.78;;;;;;;-1.39;97.36;100791.91;7397551;19;19922;-72
2023/12/01 02:33:02;;;;;;;14.07;5.93;;;;;;;-1.41;97.23;100786.72;7397443;19;19933;-72
2023/12/01 02:35:31;;;;;;;11.93;5.57;;;;;;;-1.44;95.99;100791.38;7396143;19;19942;-72
2023/12/01 02:38:00;;;;;;;11.90;5.65;;;;;;;-1.46;96.40;100791.47;7395934;19;19944;-72
2023/12/01 02:40:31;;;;;;;13.70;6.05;;;;;;;-1.52;96.08;100798.97;7394891;19;19927;-72
2023/12/01 02:43:00;;;;;;;13.77;5.47;;;;;;;-1.58;96.16;100796.72;7397619;19;19950;-72
2023/12/01 02:45:30;;;;;;;11.63;4.82;;;;;;;-1.62;95.74;100800.53;7395807;19;19922;-72
2023/12/01 02:47:58;;;;;;;13.25;5.18;;;;;;;-1.65;95.75;100800.72;7396087;19;20278;-71
2023/12/01 02:50:27;;;;;;;13.00;5.30;;;;;;;-1.67;95.89;100802.59;7397148;19;19923;-72
2023/12/01 02:52:55;;;;;;;14.80;6.07;;;;;;;-1.69;95.64;100796.59;7393746;19;19922;-71
2023/12/01 02:55:24;;;;;;;10.27;4.85;;;;;;;-1.76;95.24;100803.22;7396829;19;19927;-72
2023/12/01 02:57:56;;;;;;;12.68;5.35;;;;;;;-1.80;96.15;100802.56;7394350;19;19922;-71
2023/12/01 03:00:25;;;;;;;14.82;6.25;;;;;;;-1.83;95.93;100798.34;7393115;19;19935;-71
2023/12/01 03:02:54;;;;;;;14.77;5.95;;;;;;;-1.87;95.88;100796.84;7396315;19;19990;-71
2023/12/01 03:05:23;;;;;;;15.75;6.15;;;;;;;-1.91;95.75;100798.00;7389638;19;20031;-71
2023/12/01 03:07:52;;;;;;;12.02;5.80;;;;;;;-1.94;95.98;100795.53;7395240;19;19925;-71
2023/12/01 03:10:20;;;;;;;14.85;7.10;;;;;;;-1.93;96.20;100797.25;7396316;19;19971;-72
2023/12/01 03:12:49;;;;;;;13.65;6.07;;;;;;;-1.95;95.97;100804.44;7396520;19;19929;-71
2023/12/01 03:15:20;;;;;;;12.90;6.13;;;;;;;-2.01;95.86;100801.31;7393191;19;19943;-72
2023/12/01 03:17:50;;;;;;;13.45;6.40;;;;;;;-2.08;96.16;100805.31;7392640;19;19922;-71
2023/12/01 03:20:19;;;;;;;13.55;5.78;;;;;;;-2.09;95.95;100803.59;7394050;19;20317;-71
2023/12/01 03:22:50;;;;;;;15.55;7.53;;;;;;;-2.15;96.16;100815.41;7396654;19;19922;-71
2023/12/01 03:25:19;;;;;;;14.52;7.10;;;;;;;-2.14;96.74;100811.81;7394898;19;19919;-71
2023/12/01 03:28:07;;;;;;;14.30;6.68;;;;;;;-2.12;97.40;100807.31;7391523;19;19915;-72
2023/12/01 03:30:38;;;;;;;15.15;7.05;;;;;;;-2.05;96.85;100803.31;7395059;19;19926;-71
2023/12/01 03:33:07;;;;;;;14.20;6.22;;;;;;;-2.00;97.02;100806.50;7396179;19;20391;-72
2023/12/01 03:35:36;;;;;;;18.38;7.85;;;;;;;-1.99;96.66;100805.56;7396890;19;19922;-72
2023/12/01 03:38:04;;;;;;;18.85;7.47;;;;;;;-1.99;97.03;100805.56;7396711;19;19914;-71
2023/12/01 03:40:33;;;;;;;17.90;7.85;;;;;;;-2.00;96.74;100806.50;7394170;19;20679;-71
2023/12/01 03:43:02;;;;;;;14.75;6.55;;;;;;;-2.02;96.60;100805.75;7397079;19;20546;-71
2023/12/01 03:45:31;;;;;;;15.32;7.47;;;;;;;-2.09;96.04;100798.34;7393635;19;19926;-71
2023/12/01 03:48:02;;;;;;;15.25;7.25;;;;;;;-2.16;96.06;100799.69;7396192;19;19984;-71
2023/12/01 03:50:30;;;;;;;17.70;7.57;;;;;;;-2.21;96.40;100807.03;7395913;19;20371;-71
2023/12/01 03:52:59;;;;;;;14.95;7.50;;;;;;;-2.26;96.07;100799.41;7393859;19;20463;-71
2023/12/01 03:55:28;;;;;;;14.60;6.75;;;;;;;-2.32;96.50;100803.28;7393691;19;19926;-71
2023/12/01 03:57:56;;;;;;;16.45;7.35;;;;;;;-2.35;96.31;100805.25;7393854;19;19923;-71
2023/12/01 04:00:32;;;;;;;16.75;7.30;;;;;;;-2.39;96.16;100812.53;7393640;19;19926;-71
2023/12/01 04:03:03;;;;;;;14.95;7.32;;;;;;;-2.43;96.39;100812.81;7396766;19;19936;-71
2023/12/01 04:05:32;;;;;;;13.85;6.90;;;;;;;-2.47;96.16;100800.78;7396189;19;19964;-71
2023/12/01 04:08:00;;;;;;;15.32;7.05;;;;;;;-2.49;96.14;100802.63;7395165;19;19922;-71
2023/12/01 04:10:29;;;;;;;15.55;7.63;;;;;;;-2.56;95.68;100799.56;7391218;19;19951;-71
2023/12/01 04:13:06;;;;;;;17.40;7.55;;;;;;;-2.58;96.16;100806.69;7393463;19;19923;-71
2023/12/01 04:15:36;;;;;;;12.75;6.40;;;;;;;-2.59;96.34;100794.47;7396856;19;19915;-71
2023/12/01 04:18:08;;;;;;;12.57;6.75;;;;;;;-2.63;96.09;100805.31;7392580;19;19930;-71
2023/12/01 04:20:38;;;;;;;15.52;7.53;;;;;;;-2.66;96.20;100805.47;7393337;19;19922;-71
2023/12/01 04:23:09;;;;;;;18.00;7.97;;;;;;;-2.71;95.80;100807.53;7393987;19;20031;-71
2023/12/01 04:25:39;;;;;;;15.65;7.55;;;;;;;-2.79;95.62;100808.88;7393747;19;19926;-71
2023/12/01 04:28:08;;;;;;;16.48;7.30;;;;;;;-2.86;95.51;100811.97;7396284;19;19986;-71
2023/12/01 04:30:37;;;;;;;16.33;6.90;;;;;;;-2.92;95.77;100818.47;7394969;19;19933;-71
2023/12/01 04:33:09;;;;;;;15.80;7.72;;;;;;;-2.93;96.50;100819.41;7390478;19;19939;-71
2023/12/01 04:35:38;;;;;;;16.02;7.22;;;;;;;-2.93;96.39;100815.91;7391725;19;19922;-71
2023/12/01 04:38:08;;;;;;;14.73;6.95;;;;;;;-2.93;96.33;100819.41;7394754;19;19922;-71
2023/12/01 04:40:38;;;;;;;15.15;7.63;;;;;;;-2.95;96.67;100821.28;7394068;19;19934;-71
2023/12/01 04:43:07;;;;;;;16.27;7.40;;;;;;;-2.94;96.58;100816.88;7390389;19;19925;-71
2023/12/01 04:45:37;;;;;;;16.77;7.50;;;;;;;-2.93;96.35;100821.19;7389944;19;19947;-71
2023/12/01 04:48:09;;;;;;;17.48;7.53;;;;;;;-2.94;96.59;100817.72;7391586;19;19930;-71
2023/12/01 04:50:49;;;;;;;16.15;6.82;;;;;;;-2.97;96.08;100820.53;7393604;19;19918;-71
2023/12/01 04:53:18;;;;;;;16.83;7.07;;;;;;;-3.01;96.15;100826.91;7394948;19;20376;-71
2023/12/01 04:55:46;;;;;;;13.27;6.30;;;;;;;-3.03;96.41;100839.34;7394282;19;19951;-71
2023/12/01 04:58:15;;;;;;;13.18;6.20;;;;;;;-3.05;96.58;100841.22;7393487;19;20349;-70
2023/12/01 05:00:44;;;;;;;15.48;6.72;;;;;;;-3.06;96.43;100839.53;7392971;19;19926;-71
2023/12/01 05:03:15;;;;;;;16.05;6.47;;;;;;;-3.08;96.72;100835.28;7394284;19;20481;-71
2023/12/01 05:05:44;;;;;;;14.82;7.15;;;;;;;-3.10;96.59;100827.47;7391499;19;20349;-71
2023/12/01 05:08:13;;;;;;;15.23;6.82;;;;;;;-3.13;96.25;100835.56;7389342;19;19926;-71
2023/12/01 05:10:44;;;;;;;16.58;7.50;;;;;;;-3.18;96.16;100845.53;7394577;19;20330;-70
2023/12/01 05:13:14;;;;;;;13.65;6.47;;;;;;;-3.21;96.20;100840.44;7390223;19;19933;-70
2023/12/01 05:15:42;;;;;;;16.02;7.05;;;;;;;-3.24;96.18;100854.66;7395105;19;19919;-70
2023/12/01 05:18:12;;;;;;;16.98;6.65;;;;;;;-3.24;96.62;100853.81;7390720;19;19940;-70
2023/12/01 05:20:44;;;;;;;15.73;6.65;;;;;;;-3.24;96.57;100852.03;7392198;19;19982;-71
2023/12/01 05:23:12;;;;;;;17.77;7.88;;;;;;;-3.23;96.71;100852.84;7392764;19;20349;-70
2023/12/01 05:25:43;;;;;;;15.95;7.30;;;;;;;-3.23;96.17;100858.09;7392366;19;19928;-70
2023/12/01 05:28:13;;;;;;;18.17;7.63;;;;;;;-3.25;96.41;100855.59;7391335;19;19935;-70
2023/12/01 05:30:43;;;;;;;17.25;7.88;;;;;;;-3.26;96.24;100848.63;7392392;19;20574;-70
2023/12/01 05:33:12;;;;;;;14.40;7.22;;;;;;;-3.26;96.59;100858.28;7388356;19;19930;-70
2023/12/01 05:35:45;;;;;;;12.95;7.05;;;;;;;-3.26;96.69;100866.19;7390730;19;19928;-70
2023/12/01 05:38:15;;;;;;;16.52;7.45;;;;;;;-3.27;96.33;100865.34;7394206;19;19926;-71
2023/12/01 05:40:43;;;;;;;19.02;7.63;;;;;;;-3.26;96.56;100868.84;7398680;19;19974;-71
2023/12/01 05:43:13;;;;;;;17.63;7.40;;;;;;;-3.26;96.44;100864.41;7394341;19;20724;-70
2023/12/01 05:45:42;;;;;;;16.73;7.43;;;;;;;-3.26;96.41;100871.47;7395449;19;19933;-70
2023/12/01 05:48:10;;;;;;;15.65;6.78;;;;;;;-3.29;96.09;100869.03;7397325;19;19926;-70
2023/12/01 05:50:42;;;;;;;15.20;6.80;;;;;;;-3.30;96.11;100870.81;7398258;19;19943;-70
2023/12/01 05:53:13;;;;;;;15.60;6.43;;;;;;;-3.32;96.02;100869.19;7396188;19;20337;-71
2023/12/01 05:55:42;;;;;;;13.50;6.25;;;;;;;-3.32;96.52;100872.66;7399000;19;19922;-70
2023/12/01 05:58:12;;;;;;;12.90;6.32;;;;;;;-3.30;96.42;100872.59;7395826;19;19966;-70
2023/12/01 06:00:42;;;;;;;15.27;6.45;;;;;;;-3.32;96.12;100877.06;7394535;19;20290;-70
2023/12/01 06:03:12;;;;;;;15.02;6.47;;;;;;;-3.34;96.21;100876.34;7398013;19;19927;-70
2023/12/01 06:05:41;;;;;;;15.90;6.95;;;;;;;-3.35;96.29;100887.81;7396614;19;19922;-70
2023/12/01 06:08:32;;;;;;;15.82;6.35;;;;;;;-3.37;96.31;100887.06;7394709;19;20348;-70
2023/12/01 06:11:01;;;;;;;14.43;6.72;;;;;;;-3.38;96.46;100880.94;7397457;19;20859;-70
2023/12/01 06:13:30;;;;;;;14.85;6.57;;;;;;;-3.40;96.38;100887.22;7397974;19;19986;-70
2023/12/01 06:15:59;;;;;;;15.23;7.03;;;;;;;-3.38;96.80;100886.19;7394656;19;19930;-70
2023/12/01 06:18:29;;;;;;;15.27;7.13;;;;;;;-3.35;96.75;100895.69;7398571;19;20346;-70
2023/12/01 06:20:58;;;;;;;15.57;6.45;;;;;;;-3.35;96.57;100895.69;7394273;19;20364;-70
2023/12/01 06:23:27;;;;;;;14.88;6.82;;;;;;;-3.37;96.64;100889.69;7397092;19;19934;-70
2023/12/01 06:25:58;;;;;;;13.95;6.45;;;;;;;-3.34;96.71;100892.13;7396493;19;19941;-70
2023/12/01 06:28:27;;;;;;;15.30;7.43;;;;;;;-3.35;96.60;100890.44;7393474;19;19937;-70
2023/12/01 06:30:55;;;;;;;16.05;6.75;;;;;;;-3.38;96.61;100888.84;7393828;19;19922;-70
2023/12/01 06:33:26;;;;;;;16.27;7.53;;;;;;;-3.34;96.71;100900.03;7394373;19;19922;-70
2023/12/01 06:35:55;;;;;;;16.15;6.50;;;;;;;-3.33;96.63;100894.69;7396716;19;20353;-70
2023/12/01 06:38:23;;;;;;;17.13;7.20;;;;;;;-3.31;96.68;100887.53;7393438;19;19918;-70
2023/12/01 06:40:52;;;;;;;13.77;7.63;;;;;;;-3.31;96.41;100892.81;7392412;19;19937;-68
2023/12/01 06:43:24;;;;;;;17.02;6.65;;;;;;;-3.31;96.72;100891.94;7393806;19;19935;-69
2023/12/01 06:45:53;;;;;;;16.58;6.80;;;;;;;-3.32;96.48;100891.09;7397209;19;20387;-69
2023/12/01 06:48:21;;;;;;;14.05;6.82;;;;;;;-3.32;96.79;100898.16;7395176;19;19933;-69
2023/12/01 06:50:50;;;;;;;13.43;6.47;;;;;;;-3.33;96.71;100893.84;7389801;19;19918;-69
2023/12/01 06:53:38;;;;;;;17.20;7.00;;;;;;;-3.37;96.48;100901.06;7393218;19;19922;-69
2023/12/01 06:56:08;;;;;;;11.55;6.25;;;;;;;-3.39;96.76;100905.56;7395134;19;19926;-69
2023/12/01 06:58:39;;;;;;;16.80;7.15;;;;;;;-3.38;96.99;100895.88;7390837;19;19915;-69
2023/12/01 07:01:11;;;;;;;16.02;6.68;;;;;;;-3.36;97.19;100902.75;7395996;19;19914;-68
2023/12/01 07:03:40;;;;;;;15.55;7.32;;;;;;;-3.34;97.17;100900.88;7394943;19;19919;-70
2023/12/01 07:06:10;;;;;;;16.65;6.95;;;;;;;-3.35;96.98;100911.50;7395531;19;19929;-69
2023/12/01 07:08:40;;;;;;;15.20;6.85;;;;;;;-3.38;97.05;100909.06;7394945;19;19934;-69
2023/12/01 07:11:09;;;;;;;13.38;7.07;;;;;;;-3.36;97.06;100913.28;7393364;19;19926;-69
2023/12/01 07:13:40;;;;;;;17.17;6.78;;;;;;;-3.38;96.61;100917.81;7392552;19;19927;-68
2023/12/01 07:16:12;;;;;;;15.93;6.53;;;;;;;-3.39;97.31;100931.06;7392947;19;20315;-69
2023/12/01 07:18:43;;;;;;;15.82;6.57;;;;;;;-3.42;97.28;100923.34;7387630;19;19966;-68
2023/12/01 07:21:11;;;;;;;16.20;6.93;;;;;;;-3.42;97.72;100932.09;7393372;19;19918;-69
2023/12/01 07:23:41;;;;;;;15.32;7.43;;;;;;;-3.41;97.26;100930.31;7387834;19;20340;-69
2023/12/01 07:26:10;;;;;;;15.35;7.18;;;;;;;-3.42;97.62;100953.16;7391445;19;20269;-69
2023/12/01 07:28:42;;;;;;;16.85;6.78;;;;;;;-3.42;97.33;100947.03;7394027;19;19974;-70
2023/12/01 07:31:11;;;;;;;18.10;7.57;;;;;;;-3.40;97.51;100953.03;7390532;19;20451;-70
2023/12/01 07:34:00;;;;;;;16.35;7.45;;;;;;;-3.39;97.52;100952.97;7393094;19;19919;-69
2023/12/01 07:36:29;;;;;;;16.20;7.18;;;;;;;-3.39;97.37;100965.28;7397065;19;19954;-69
2023/12/01 07:38:58;;;;;;;14.93;7.20;;;;;;;-3.36;97.23;100968.59;7396733;19;19915;-69
2023/12/01 07:41:26;;;;;;;16.13;6.50;;;;;;;-3.31;97.63;100963.91;7394166;19;19930;-69
2023/12/01 07:43:58;;;;;;;15.27;6.30;;;;;;;-3.31;97.09;100973.59;7396770;19;19926;-69
2023/12/01 07:46:27;;;;;;;16.30;7.38;;;;;;;-3.31;97.00;100978.88;7396027;19;19915;-69
2023/12/01 07:48:56;;;;;;;20.00;7.68;;;;;;;-3.29;97.32;100979.66;7395900;19;19947;-69
2023/12/01 07:51:25;;;;;;;15.23;6.47;;;;;;;-3.25;97.27;100983.81;7392341;19;20240;-69
2023/12/01 07:53:54;;;;;;;17.02;7.43;;;;;;;-3.23;96.73;100992.44;7394203;19;19958;-69
2023/12/01 07:56:43;;;;;;;17.20;7.50;;;;;;;-3.21;96.98;100991.44;7394791;19;20026;-69
2023/12/01 07:59:14;;;;;;;15.90;6.90;;;;;;;-3.16;96.79;100992.97;7396451;19;19918;-69
2023/12/01 08:01:42;;;;;;;17.45;7.15;;;;;;;-3.14;96.70;100997.22;7394052;19;19922;-69
2023/12/01 08:04:11;;;;;;;13.75;7.18;;;;;;;-3.10;97.26;100996.09;7393170;19;19975;-69
2023/12/01 08:06:40;;;;;;;15.85;8.00;;;;;;;-3.09;97.11;100989.91;7396243;19;20455;-69
2023/12/01 08:09:08;;;;;;;16.50;7.03;;;;;;;-3.06;97.22;100989.72;7392783;19;19954;-69
2023/12/01 08:11:37;;;;;;;14.68;7.10;;;;;;;-3.03;97.40;100991.34;7396738;19;20401;-69
2023/12/01 08:14:06;;;;;;;16.67;6.97;;;;;;;-3.03;97.28;100991.34;7393588;19;19914;-69
2023/12/01 08:16:37;;;;;;;18.35;8.68;;;;;;;-2.99;97.44;100998.13;7394540;19;19943;-69
2023/12/01 08:19:09;;;;;;;15.88;8.00;;;;;;;-2.95;97.54;101003.13;7392118;19;19922;-69
2023/12/01 08:21:38;;;;;;;17.05;7.30;;;;;;;-2.91;97.36;101006.44;7395512;19;19927;-69
2023/12/01 08:24:07;;;;;;;15.45;7.70;;;;;;;-2.88;97.48;101007.09;7395003;19;19918;-70
2023/12/01 08:26:37;;;;;;;15.32;7.22;;;;;;;-2.84;97.35;101011.25;7396539;19;19918;-69
2023/12/01 08:29:05;;;;;;;18.52;8.52;;;;;;;-2.83;97.07;101012.97;7395509;19;19970;-69
2023/12/01 08:31:38;;;;;;;20.15;8.68;;;;;;;-2.83;96.65;101023.50;7395703;19;19923;-69
2023/12/01 08:34:07;;;;;;;17.70;7.50;;;;;;;-2.83;96.88;101027.94;7394366;19;19941;-70
2023/12/01 08:36:36;;;;;;;19.88;7.80;;;;;;;-2.86;96.44;101023.69;7395100;19;19922;-69
2023/12/01 08:39:09;;;;;;;16.40;7.28;;;;;;;-2.85;96.55;101027.19;7395358;19;19922;-69
2023/12/01 08:41:38;;;;;;;15.38;7.50;;;;;;;-2.87;96.69;101018.50;7393072;19;19935;-69
2023/12/01 08:44:07;;;;;;;16.23;7.40;;;;;;;-2.86;96.77;101023.69;7396162;19;19918;-69
2023/12/01 08:46:38;;;;;;;15.57;7.47;;;;;;;-2.82;96.67;101022.59;7394645;19;19925;-69
2023/12/01 08:49:07;;;;;;;17.23;7.13;;;;;;;-2.79;96.53;101016.28;7395052;19;20515;-69
2023/12/01 08:51:35;;;;;;;18.02;7.75;;;;;;;-2.77;96.59;101023.19;7393910;19;19994;-69
2023/12/01 08:54:04;;;;;;;19.35;6.97;;;;;;;-2.78;96.23;101018.84;7395337;19;20451;-70
2023/12/01 08:56:33;;;;;;;16.05;6.80;;;;;;;-2.75;96.67;101025.69;7392190;19;19922;-69
2023/12/01 08:59:03;;;;;;;16.48;6.75;;;;;;;-2.71;96.70;101021.09;7392878;19;19935;-69
2023/12/01 09:01:31;;;;;;;14.35;6.55;;;;;;;-2.66;96.58;101026.97;7392858;19;19923;-69
2023/12/01 09:04:02;;;;;;;19.27;7.60;;;;;;;-2.62;97.27;101025.84;7393752;19;19922;-69
2023/12/01 09:06:51;;;;;;;15.93;7.50;;;;;;;-2.56;96.73;101031.63;7391964;19;19926;-69
2023/12/01 09:09:20;;;;;;;15.88;7.00;;;;;;;-2.58;96.68;101030.84;7394588;19;19922;-69
2023/12/01 09:11:48;;;;;;;19.50;7.43;;;;;;;-2.59;96.93;101037.06;7393167;19;19914;-69
2023/12/01 09:14:17;;;;;;;17.42;7.90;;;;;;;-2.60;96.82;101037.16;7391325;19;19925;-69
2023/12/01 09:16:45;;;;;;;16.83;7.55;;;;;;;-2.54;97.54;101029.72;7395522;19;19926;-69
2023/12/01 09:19:17;;;;;;;16.67;7.68;;;;;;;-2.47;97.90;101033.72;7393546;19;19964;-69
2023/12/01 09:21:45;;;;;;;17.15;7.32;;;;;;;-2.37;98.16;101036.63;7392364;19;19934;-69
2023/12/01 09:24:14;;;;;;;15.27;7.53;;;;;;;-2.30;97.81;101033.56;7392327;19;20345;-69
2023/12/01 09:26:42;;;;;;;16.38;7.22;;;;;;;-2.24;96.99;101034.97;7391155;19;19954;-69
2023/12/01 09:29:11;;;;;;;15.85;7.07;;;;;;;-2.17;97.46;101038.09;7392401;19;20284;-69
2023/12/01 09:31:45;;;;;;;16.63;6.68;;;;;;;-2.12;97.18;101043.97;7393894;19;20282;-69
2023/12/01 09:34:16;;;;;;;16.35;6.85;;;;;;;-2.09;97.79;101041.97;7392019;19;19926;-69
2023/12/01 09:36:45;;;;;;;18.67;7.07;;;;;;;-2.02;97.65;101039.81;7393078;19;19914;-69
2023/12/01 09:39:15;;;;;;;15.27;7.63;;;;;;;-1.96;98.08;101053.50;7392313;19;19954;-69
2023/12/01 09:41:45;;;;;;;15.50;7.30;;;;;;;-1.90;97.82;101053.09;7392473;19;19914;-70
2023/12/01 09:44:15;;;;;;;17.00;7.47;;;;;;;-1.88;97.79;101048.59;7393376;19;19943;-69
2023/12/01 09:46:45;;;;;;;18.17;7.93;;;;;;;-1.90;97.95;101047.81;7392827;19;19950;-69
2023/12/01 09:49:17;;;;;;;17.92;8.10;;;;;;;-1.90;98.09;101047.81;7392663;19;19919;-69
2023/12/01 09:51:46;;;;;;;18.55;8.63;;;;;;;-1.86;98.10;101045.88;7390988;19;19958;-69
2023/12/01 09:54:15;;;;;;;14.75;7.70;;;;;;;-1.85;98.09;101040.47;7393522;19;19915;-69
2023/12/01 09:56:44;;;;;;;19.60;9.63;;;;;;;-1.78;98.20;101038.31;7390040;19;20337;-69
2023/12/01 09:59:15;;;;;;;16.92;7.53;;;;;;;-1.70;97.71;101041.34;7393156;19;19927;-69
2023/12/01 10:02:05;;;;;;;16.88;7.03;;;;;;;-1.58;98.38;101043.22;7391202;19;19967;-69
2023/12/01 10:04:37;;;;;;;15.70;7.47;;;;;;;-1.43;97.90;101052.00;7391982;19;19927;-70
2023/12/01 10:07:06;;;;;;;;;;;;;;;-1.32;98.48;101061.88;7393964;19;19933;-70
2023/12/01 10:09:36;;;;;;;;;;;;;;;-1.27;97.90;101049.22;7392633;19;19953;-70
2023/12/01 10:12:12;;;;;;;14.93;6.50;;;;;;;-1.18;97.62;101056.56;7392697;19;19919;-70
2023/12/01 10:14:41;;;;;;;17.75;7.72;;;;;;;-1.11;97.84;101056.06;7391040;19;19982;-70
2023/12/01 10:17:12;;;;;;;17.15;7.50;;;;;;;-1.03;98.07;101069.63;7390162;19;19919;-70
2023/12/01 10:19:52;;;;;;;16.08;8.15;;;;;;;-0.96;98.16;101065.69;7390861;19;19919;-70
2023/12/01 10:22:22;;;;;;;19.58;7.95;;;;;;;-0.88;97.97;101059.03;7391471;19;20450;-70
2023/12/01 10:25:03;;;;;;;15.50;7.35;;;;;;;-0.82;97.63;101070.03;7394670;19;19945;-70
2023/12/01 10:27:32;;;;;;;19.65;8.38;;;;;;;-0.75;97.43;101071.34;7397976;19;19922;-70
2023/12/01 10:30:12;;;;;;;16.80;9.75;;;;;;;-0.71;97.49;101079.94;7398257;19;19915;-70
2023/12/01 10:32:41;;;;;;;17.73;8.30;;;;;;;-0.69;97.47;101078.88;7398308;19;19923;-70
2023/12/01 10:35:12;;;;;;;17.90;10.25;;;;;;;-0.68;97.30;101085.03;7398578;19;20458;-70
2023/12/01 10:37:41;;;;;;;20.38;9.63;;;;;;;-0.68;97.31;101070.00;7396928;19;19919;-70
2023/12/01 10:40:13;;;;;;;20.70;9.27;;;;;;;-0.70;97.26;101081.66;7398610;19;19946;-70
2023/12/01 10:42:45;;;;;;;15.55;7.82;;;;;;;-0.69;97.45;101078.88;7394183;19;19927;-70
2023/12/01 10:45:15;;;;;;;21.75;9.80;;;;;;;-0.70;97.31;101076.34;7397835;19;19960;-70
2023/12/01 10:47:47;;;;;;;18.63;8.05;;;;;;;-0.70;97.21;101071.06;7394366;19;20578;-70
2023/12/01 10:50:18;;;;;;;16.98;7.72;;;;;;;-0.67;97.27;101068.22;7397449;19;19942;-70
2023/12/01 10:52:48;;;;;;;17.63;8.98;;;;;;;-0.64;97.13;101054.75;7397629;19;19914;-70
2023/12/01 10:55:17;;;;;;;20.08;10.32;;;;;;;-0.63;96.98;101056.47;7398454;19;19927;-70
2023/12/01 10:57:47;;;;;;;29.83;14.93;;;;;;;-0.61;96.73;101060.72;7398048;19;19918;-70
2023/12/01 11:00:29;;;;;;;28.73;12.90;;;;;;;-0.59;96.95;101058.81;7397586;19;19926;-70
2023/12/01 11:03:03;;;;;;;19.38;9.80;;;;;;;-0.56;96.55;101057.78;7396749;19;19926;-70
2023/12/01 11:05:37;;;;;;;20.77;9.88;;;;;;;-0.53;96.77;101052.28;7397013;19;19936;-70
2023/12/01 11:08:30;;;;;;;19.77;8.70;;;;;;;-0.50;96.56;101050.28;7396885;19;19922;-70
2023/12/01 11:11:11;;;;;;;20.58;8.98;;;;;;;-0.43;96.60;101049.88;7397524;19;19926;-70
2023/12/01 11:14:00;;;;;;;20.33;8.48;;;;;;;-0.46;96.07;101043.81;7393134;19;19925;-70
2023/12/01 11:16:31;;;;;;;23.50;10.18;;;;;;;-0.42;96.35;101041.81;7397475;19;20019;-71
2023/12/01 11:19:01;;;;;;;21.55;10.07;;;;;;;-0.40;96.65;101044.38;7396250;19;20001;-70
2023/12/01 11:22:00;;;;;;;18.20;8.52;;;;;;;-0.40;96.86;101039.06;7394668;19;19990;-70
2023/12/01 11:24:48;;;;;;;19.58;8.52;;;;;;;-0.33;97.08;101045.63;7395947;19;19922;-70
2023/12/01 11:27:19;;;;;;;17.67;7.50;;;;;;;-0.28;96.92;101048.84;7396419;19;19922;-70
2023/12/01 11:30:06;;;;;;;17.40;7.75;;;;;;;-0.32;96.73;101042.91;7396198;19;20407;-70
2023/12/01 11:32:35;;;;;;;19.23;7.95;;;;;;;-0.31;96.96;101046.41;7397577;19;19930;-70